sensor_id;sensor_type;location;lat;lon;timestamp;temperature;humidity
5697;DHT22;2873;50.966;7.210;2023-10-13T00:01:22;18.30;99.90
5697;DHT22;2873;50.966;7.210;2023-10-13T00:03:47;18.20;99.90
5697;DHT22;2873;50.966;7.210;2023-10-13T00:06:13;18.20;99.90
5697;DHT22;2873;50.966;7.210;2023-10-13T00:08:38;18.20;99.90
5697;DHT22;2873;50.966;7.210;2023-10-13T00:11:05;18.30;99.90
5697;DHT22;2873;50.966;7.210;2023-10-13T00:13:32;18.20;99.90
5697;DHT22;2873;50.966;7.210;2023-10-13T00:16:20;18.20;99.90
5697;DHT22;2873;50.966;7.210;2023-10-13T00:18:54;18.20;99.90
5697;DHT22;2873;50.966;7.210;2023-10-13T00:21:23;18.20;99.90
5697;DHT22;2873;50.966;7.210;2023-10-13T00:23:57;18.30;99.90
5697;DHT22;2873;50.966;7.210;2023-10-13T00:26:26;18.30;99.90
5697;DHT22;2873;50.966;7.210;2023-10-13T00:29:01;18.30;99.90
5697;DHT22;2873;50.966;7.210;2023-10-13T00:31:38;18.30;99.90
5697;DHT22;2873;50.966;7.210;2023-10-13T00:34:06;18.30;99.90
5697;DHT22;2873;50.966;7.210;2023-10-13T00:36:40;18.30;99.90
5697;DHT22;2873;50.966;7.210;2023-10-13T00:39:35;18.20;99.90
5697;DHT22;2873;50.966;7.210;2023-10-13T00:42:03;18.20;99.90
5697;DHT22;2873;50.966;7.210;2023-10-13T00:44:33;18.20;99.90
5697;DHT22;2873;50.966;7.210;2023-10-13T00:47:09;18.20;99.90
5697;DHT22;2873;50.966;7.210;2023-10-13T00:49:38;18.20;99.90
5697;DHT22;2873;50.966;7.210;2023-10-13T00:52:09;18.20;99.90
5697;DHT22;2873;50.966;7.210;2023-10-13T00:54:37;18.10;99.90
5697;DHT22;2873;50.966;7.210;2023-10-13T00:57:03;18.10;99.90
5697;DHT22;2873;50.966;7.210;2023-10-13T00:59:52;18.00;99.90
5697;DHT22;2873;50.966;7.210;2023-10-13T01:02:19;18.10;99.90
5697;DHT22;2873;50.966;7.210;2023-10-13T01:05:07;18.10;99.90
5697;DHT22;2873;50.966;7.210;2023-10-13T01:07:37;18.10;99.90
5697;DHT22;2873;50.966;7.210;2023-10-13T01:10:10;18.00;99.90
5697;DHT22;2873;50.966;7.210;2023-10-13T01:12:39;18.00;99.90
5697;DHT22;2873;50.966;7.210;2023-10-13T01:15:04;18.10;99.90
5697;DHT22;2873;50.966;7.210;2023-10-13T01:17:35;18.10;99.90
5697;DHT22;2873;50.966;7.210;2023-10-13T01:20:00;18.00;99.90
5697;DHT22;2873;50.966;7.210;2023-10-13T01:22:26;17.90;99.90
5697;DHT22;2873;50.966;7.210;2023-10-13T01:24:54;17.80;99.90
5697;DHT22;2873;50.966;7.210;2023-10-13T01:27:38;17.80;99.90
5697;DHT22;2873;50.966;7.210;2023-10-13T01:30:04;17.80;99.90
5697;DHT22;2873;50.966;7.210;2023-10-13T01:32:38;17.70;99.90
5697;DHT22;2873;50.966;7.210;2023-10-13T01:35:10;17.70;99.90
5697;DHT22;2873;50.966;7.210;2023-10-13T01:37:36;17.80;99.90
5697;DHT22;2873;50.966;7.210;2023-10-13T01:40:02;17.80;99.90
5697;DHT22;2873;50.966;7.210;2023-10-13T01:42:27;17.80;99.90
5697;DHT22;2873;50.966;7.210;2023-10-13T01:44:55;17.70;99.90
5697;DHT22;2873;50.966;7.210;2023-10-13T01:47:23;17.70;99.90
5697;DHT22;2873;50.966;7.210;2023-10-13T01:49:49;17.70;99.90
5697;DHT22;2873;50.966;7.210;2023-10-13T01:52:15;17.70;99.90
5697;DHT22;2873;50.966;7.210;2023-10-13T01:54:42;17.70;99.90
5697;DHT22;2873;50.966;7.210;2023-10-13T01:57:10;17.70;99.90
5697;DHT22;2873;50.966;7.210;2023-10-13T01:59:48;17.70;99.90
5697;DHT22;2873;50.966;7.210;2023-10-13T02:02:14;17.80;99.90
5697;DHT22;2873;50.966;7.210;2023-10-13T02:04:41;17.70;99.90
5697;DHT22;2873;50.966;7.210;2023-10-13T02:07:21;17.70;99.90
5697;DHT22;2873;50.966;7.210;2023-10-13T02:09:52;17.80;99.90
5697;DHT22;2873;50.966;7.210;2023-10-13T02:12:20;17.70;99.90
5697;DHT22;2873;50.966;7.210;2023-10-13T02:14:51;17.70;99.90
5697;DHT22;2873;50.966;7.210;2023-10-13T02:17:16;17.70;99.90
5697;DHT22;2873;50.966;7.210;2023-10-13T02:19:46;17.70;99.90
5697;DHT22;2873;50.966;7.210;2023-10-13T02:22:12;17.60;99.90
5697;DHT22;2873;50.966;7.210;2023-10-13T02:24:49;17.70;99.90
5697;DHT22;2873;50.966;7.210;2023-10-13T02:27:17;17.70;99.90
5697;DHT22;2873;50.966;7.210;2023-10-13T02:29:43;17.70;99.90
5697;DHT22;2873;50.966;7.210;2023-10-13T02:32:11;17.70;99.90
5697;DHT22;2873;50.966;7.210;2023-10-13T02:34:55;17.70;99.90
5697;DHT22;2873;50.966;7.210;2023-10-13T02:37:31;17.70;99.90
5697;DHT22;2873;50.966;7.210;2023-10-13T02:39:56;17.70;99.90
5697;DHT22;2873;50.966;7.210;2023-10-13T02:42:23;17.70;99.90
5697;DHT22;2873;50.966;7.210;2023-10-13T02:44:49;17.60;99.90
5697;DHT22;2873;50.966;7.210;2023-10-13T02:47:16;17.60;99.90
5697;DHT22;2873;50.966;7.210;2023-10-13T02:49:44;17.60;99.90
5697;DHT22;2873;50.966;7.210;2023-10-13T02:52:11;17.60;99.90
5697;DHT22;2873;50.966;7.210;2023-10-13T02:54:38;17.60;99.90
5697;DHT22;2873;50.966;7.210;2023-10-13T02:57:18;17.60;99.90
5697;DHT22;2873;50.966;7.210;2023-10-13T02:59:44;17.50;99.90
5697;DHT22;2873;50.966;7.210;2023-10-13T03:02:16;17.60;99.90
5697;DHT22;2873;50.966;7.210;2023-10-13T03:04:54;17.70;99.90
5697;DHT22;2873;50.966;7.210;2023-10-13T03:07:36;17.70;99.90
5697;DHT22;2873;50.966;7.210;2023-10-13T03:10:02;17.60;99.90
5697;DHT22;2873;50.966;7.210;2023-10-13T03:12:39;17.70;99.90
5697;DHT22;2873;50.966;7.210;2023-10-13T03:15:06;17.70;99.90
5697;DHT22;2873;50.966;7.210;2023-10-13T03:17:37;17.60;99.90
5697;DHT22;2873;50.966;7.210;2023-10-13T03:20:09;17.70;99.90
5697;DHT22;2873;50.966;7.210;2023-10-13T03:22:37;17.70;99.90
5697;DHT22;2873;50.966;7.210;2023-10-13T03:25:03;17.70;99.90
5697;DHT22;2873;50.966;7.210;2023-10-13T03:27:31;17.70;99.90
5697;DHT22;2873;50.966;7.210;2023-10-13T03:30:13;17.70;99.90
5697;DHT22;2873;50.966;7.210;2023-10-13T03:32:44;17.80;99.90
5697;DHT22;2873;50.966;7.210;2023-10-13T03:35:14;17.70;99.90
5697;DHT22;2873;50.966;7.210;2023-10-13T03:37:53;17.70;99.90
5697;DHT22;2873;50.966;7.210;2023-10-13T03:40:20;17.70;99.90
5697;DHT22;2873;50.966;7.210;2023-10-13T03:42:56;17.70;99.90
5697;DHT22;2873;50.966;7.210;2023-10-13T03:45:42;17.60;99.90
5697;DHT22;2873;50.966;7.210;2023-10-13T03:48:10;17.60;99.90
5697;DHT22;2873;50.966;7.210;2023-10-13T03:50:40;17.60;99.90
5697;DHT22;2873;50.966;7.210;2023-10-13T03:53:14;17.60;99.90
5697;DHT22;2873;50.966;7.210;2023-10-13T03:55:40;17.60;99.90
5697;DHT22;2873;50.966;7.210;2023-10-13T03:58:14;17.60;99.90
5697;DHT22;2873;50.966;7.210;2023-10-13T04:00:39;17.60;99.90
5697;DHT22;2873;50.966;7.210;2023-10-13T04:03:08;17.50;99.90
5697;DHT22;2873;50.966;7.210;2023-10-13T04:05:33;17.40;99.90
5697;DHT22;2873;50.966;7.210;2023-10-13T04:08:05;17.50;99.90
5697;DHT22;2873;50.966;7.210;2023-10-13T04:10:51;17.50;99.90
5697;DHT22;2873;50.966;7.210;2023-10-13T04:13:17;17.50;99.90
5697;DHT22;2873;50.966;7.210;2023-10-13T04:16:03;17.50;99.90
5697;DHT22;2873;50.966;7.210;2023-10-13T04:19:01;17.60;99.90
5697;DHT22;2873;50.966;7.210;2023-10-13T04:21:26;17.60;99.90
5697;DHT22;2873;50.966;7.210;2023-10-13T04:24:07;17.70;99.90
5697;DHT22;2873;50.966;7.210;2023-10-13T04:26:43;17.70;99.90
5697;DHT22;2873;50.966;7.210;2023-10-13T04:29:34;17.60;99.90
5697;DHT22;2873;50.966;7.210;2023-10-13T04:32:19;17.70;99.90
5697;DHT22;2873;50.966;7.210;2023-10-13T04:34:55;17.70;99.90
5697;DHT22;2873;50.966;7.210;2023-10-13T04:37:25;17.70;99.90
5697;DHT22;2873;50.966;7.210;2023-10-13T04:39:54;17.80;99.90
5697;DHT22;2873;50.966;7.210;2023-10-13T04:42:24;17.80;99.90
5697;DHT22;2873;50.966;7.210;2023-10-13T04:45:13;17.70;99.90
5697;DHT22;2873;50.966;7.210;2023-10-13T04:48:02;17.80;99.90
5697;DHT22;2873;50.966;7.210;2023-10-13T04:50:59;17.80;99.90
5697;DHT22;2873;50.966;7.210;2023-10-13T04:53:45;17.90;99.90
5697;DHT22;2873;50.966;7.210;2023-10-13T04:56:33;18.00;99.90
5697;DHT22;2873;50.966;7.210;2023-10-13T04:59:08;18.00;99.90
5697;DHT22;2873;50.966;7.210;2023-10-13T05:01:44;18.00;99.90
5697;DHT22;2873;50.966;7.210;2023-10-13T05:04:28;18.00;99.90
5697;DHT22;2873;50.966;7.210;2023-10-13T05:07:12;18.10;99.90
5697;DHT22;2873;50.966;7.210;2023-10-13T05:09:56;18.00;99.90
5697;DHT22;2873;50.966;7.210;2023-10-13T05:12:42;17.90;99.90
5697;DHT22;2873;50.966;7.210;2023-10-13T05:15:26;17.90;99.90
5697;DHT22;2873;50.966;7.210;2023-10-13T05:18:10;18.00;99.90
5697;DHT22;2873;50.966;7.210;2023-10-13T05:20:55;17.90;99.90
5697;DHT22;2873;50.966;7.210;2023-10-13T05:23:39;17.90;99.90
5697;DHT22;2873;50.966;7.210;2023-10-13T05:26:23;17.90;99.90
5697;DHT22;2873;50.966;7.210;2023-10-13T05:29:07;17.90;99.90
5697;DHT22;2873;50.966;7.210;2023-10-13T05:31:51;17.90;99.90
5697;DHT22;2873;50.966;7.210;2023-10-13T05:34:35;17.90;99.90
5697;DHT22;2873;50.966;7.210;2023-10-13T05:37:20;17.90;99.90
5697;DHT22;2873;50.966;7.210;2023-10-13T05:40:04;18.00;99.90
5697;DHT22;2873;50.966;7.210;2023-10-13T05:42:48;17.90;99.90
5697;DHT22;2873;50.966;7.210;2023-10-13T05:45:35;17.90;99.90
5697;DHT22;2873;50.966;7.210;2023-10-13T05:48:23;17.90;99.90
5697;DHT22;2873;50.966;7.210;2023-10-13T05:51:07;17.90;99.90
5697;DHT22;2873;50.966;7.210;2023-10-13T05:53:51;17.80;99.90
5697;DHT22;2873;50.966;7.210;2023-10-13T05:56:55;17.90;99.90
5697;DHT22;2873;50.966;7.210;2023-10-13T05:59:39;17.90;99.90
5697;DHT22;2873;50.966;7.210;2023-10-13T06:02:24;17.90;99.90
5697;DHT22;2873;50.966;7.210;2023-10-13T06:05:10;17.90;99.90
5697;DHT22;2873;50.966;7.210;2023-10-13T06:07:56;17.90;99.90
5697;DHT22;2873;50.966;7.210;2023-10-13T06:10:41;17.90;99.90
5697;DHT22;2873;50.966;7.210;2023-10-13T06:13:25;18.00;99.90
5697;DHT22;2873;50.966;7.210;2023-10-13T06:16:11;18.00;99.90
5697;DHT22;2873;50.966;7.210;2023-10-13T06:18:56;18.00;99.90
5697;DHT22;2873;50.966;7.210;2023-10-13T06:21:40;18.00;99.90
5697;DHT22;2873;50.966;7.210;2023-10-13T06:24:25;18.10;99.90
5697;DHT22;2873;50.966;7.210;2023-10-13T06:27:09;18.20;99.90
5697;DHT22;2873;50.966;7.210;2023-10-13T06:29:53;18.20;99.90
5697;DHT22;2873;50.966;7.210;2023-10-13T06:32:19;18.20;99.90
5697;DHT22;2873;50.966;7.210;2023-10-13T06:34:45;18.20;99.90
5697;DHT22;2873;50.966;7.210;2023-10-13T06:37:12;18.20;99.90
5697;DHT22;2873;50.966;7.210;2023-10-13T06:39:52;18.30;99.90
5697;DHT22;2873;50.966;7.210;2023-10-13T06:42:25;18.30;99.90
5697;DHT22;2873;50.966;7.210;2023-10-13T06:44:56;18.30;99.90
5697;DHT22;2873;50.966;7.210;2023-10-13T06:47:22;18.30;99.90
5697;DHT22;2873;50.966;7.210;2023-10-13T06:49:48;18.40;99.90
5697;DHT22;2873;50.966;7.210;2023-10-13T06:52:17;18.50;99.90
5697;DHT22;2873;50.966;7.210;2023-10-13T06:54:43;18.50;99.90
5697;DHT22;2873;50.966;7.210;2023-10-13T06:57:09;18.50;99.90
5697;DHT22;2873;50.966;7.210;2023-10-13T06:59:40;18.60;99.90
5697;DHT22;2873;50.966;7.210;2023-10-13T07:02:06;18.60;99.90
5697;DHT22;2873;50.966;7.210;2023-10-13T07:04:35;18.70;99.90
5697;DHT22;2873;50.966;7.210;2023-10-13T07:07:07;18.60;99.90
5697;DHT22;2873;50.966;7.210;2023-10-13T07:09:36;18.60;99.90
5697;DHT22;2873;50.966;7.210;2023-10-13T07:12:03;18.60;99.90
5697;DHT22;2873;50.966;7.210;2023-10-13T07:14:34;18.70;99.90
5697;DHT22;2873;50.966;7.210;2023-10-13T07:17:04;18.50;99.90
5697;DHT22;2873;50.966;7.210;2023-10-13T07:19:30;18.60;99.90
5697;DHT22;2873;50.966;7.210;2023-10-13T07:22:01;18.60;99.90
5697;DHT22;2873;50.966;7.210;2023-10-13T07:24:47;18.60;99.90
5697;DHT22;2873;50.966;7.210;2023-10-13T07:27:21;18.60;99.90
5697;DHT22;2873;50.966;7.210;2023-10-13T07:29:56;18.70;99.90
5697;DHT22;2873;50.966;7.210;2023-10-13T07:32:42;18.70;99.90
5697;DHT22;2873;50.966;7.210;2023-10-13T07:35:21;18.80;99.90
5697;DHT22;2873;50.966;7.210;2023-10-13T07:37:51;18.80;99.90
5697;DHT22;2873;50.966;7.210;2023-10-13T07:40:21;18.90;99.90
5697;DHT22;2873;50.966;7.210;2023-10-13T07:43:05;19.10;99.90
5697;DHT22;2873;50.966;7.210;2023-10-13T07:45:39;19.00;99.90
5697;DHT22;2873;50.966;7.210;2023-10-13T07:48:08;19.00;99.90
5697;DHT22;2873;50.966;7.210;2023-10-13T07:50:42;19.10;99.90
5697;DHT22;2873;50.966;7.210;2023-10-13T07:53:09;19.10;99.90
5697;DHT22;2873;50.966;7.210;2023-10-13T07:55:50;19.10;99.90
5697;DHT22;2873;50.966;7.210;2023-10-13T07:58:22;19.00;99.90
5697;DHT22;2873;50.966;7.210;2023-10-13T08:00:51;19.10;99.90
5697;DHT22;2873;50.966;7.210;2023-10-13T08:03:35;19.20;99.90
5697;DHT22;2873;50.966;7.210;2023-10-13T08:06:10;19.30;99.90
5697;DHT22;2873;50.966;7.210;2023-10-13T08:08:36;19.20;99.90
5697;DHT22;2873;50.966;7.210;2023-10-13T08:11:15;19.30;99.90
5697;DHT22;2873;50.966;7.210;2023-10-13T08:13:57;19.30;99.90
5697;DHT22;2873;50.966;7.210;2023-10-13T08:16:37;19.40;99.90
5697;DHT22;2873;50.966;7.210;2023-10-13T08:19:15;19.40;99.90
5697;DHT22;2873;50.966;7.210;2023-10-13T08:21:45;19.40;99.90
5697;DHT22;2873;50.966;7.210;2023-10-13T08:24:17;19.50;99.90
5697;DHT22;2873;50.966;7.210;2023-10-13T08:26:53;19.70;99.90
5697;DHT22;2873;50.966;7.210;2023-10-13T08:29:37;19.70;99.90
5697;DHT22;2873;50.966;7.210;2023-10-13T08:32:24;19.60;99.90
5697;DHT22;2873;50.966;7.210;2023-10-13T08:35:02;19.60;99.90
5697;DHT22;2873;50.966;7.210;2023-10-13T08:37:31;19.70;99.90
5697;DHT22;2873;50.966;7.210;2023-10-13T08:40:13;19.60;99.90
5697;DHT22;2873;50.966;7.210;2023-10-13T08:42:57;19.70;99.90
5697;DHT22;2873;50.966;7.210;2023-10-13T08:45:28;19.80;99.90
5697;DHT22;2873;50.966;7.210;2023-10-13T08:47:59;19.80;99.90
5697;DHT22;2873;50.966;7.210;2023-10-13T08:50:35;19.80;99.90
5697;DHT22;2873;50.966;7.210;2023-10-13T08:53:26;19.90;99.90
5697;DHT22;2873;50.966;7.210;2023-10-13T08:56:05;19.90;99.90
5697;DHT22;2873;50.966;7.210;2023-10-13T08:58:36;20.00;99.90
5697;DHT22;2873;50.966;7.210;2023-10-13T09:01:24;20.10;99.90
5697;DHT22;2873;50.966;7.210;2023-10-13T09:03:59;20.10;99.90
5697;DHT22;2873;50.966;7.210;2023-10-13T09:06:54;20.00;99.90
5697;DHT22;2873;50.966;7.210;2023-10-13T09:12:22;20.10;99.90
5697;DHT22;2873;50.966;7.210;2023-10-13T09:15:02;20.20;99.90
5697;DHT22;2873;50.966;7.210;2023-10-13T09:17:32;20.30;99.90
5697;DHT22;2873;50.966;7.210;2023-10-13T09:20:04;20.30;99.90
5697;DHT22;2873;50.966;7.210;2023-10-13T09:22:58;20.30;99.90
5697;DHT22;2873;50.966;7.210;2023-10-13T09:25:27;20.40;99.90
5697;DHT22;2873;50.966;7.210;2023-10-13T09:27:58;20.40;99.90
5697;DHT22;2873;50.966;7.210;2023-10-13T09:30:26;20.40;99.90
5697;DHT22;2873;50.966;7.210;2023-10-13T09:33:04;20.50;99.90
5697;DHT22;2873;50.966;7.210;2023-10-13T09:35:31;20.50;99.90
5697;DHT22;2873;50.966;7.210;2023-10-13T09:38:00;20.40;99.90
5697;DHT22;2873;50.966;7.210;2023-10-13T09:40:28;20.50;99.90
5697;DHT22;2873;50.966;7.210;2023-10-13T09:43:03;20.50;99.90
5697;DHT22;2873;50.966;7.210;2023-10-13T09:45:41;20.50;99.90
5697;DHT22;2873;50.966;7.210;2023-10-13T09:48:10;20.60;99.90
5697;DHT22;2873;50.966;7.210;2023-10-13T09:50:43;20.50;99.90
5697;DHT22;2873;50.966;7.210;2023-10-13T09:53:10;20.90;99.90
5697;DHT22;2873;50.966;7.210;2023-10-13T09:55:42;21.10;99.90
5697;DHT22;2873;50.966;7.210;2023-10-13T09:58:11;21.40;99.90
5697;DHT22;2873;50.966;7.210;2023-10-13T10:00:47;21.50;99.90
5697;DHT22;2873;50.966;7.210;2023-10-13T10:03:15;21.70;99.90
5697;DHT22;2873;50.966;7.210;2023-10-13T10:05:57;21.90;99.90
5697;DHT22;2873;50.966;7.210;2023-10-13T10:08:29;22.10;99.90
5697;DHT22;2873;50.966;7.210;2023-10-13T10:11:07;22.30;99.90
5697;DHT22;2873;50.966;7.210;2023-10-13T10:16:59;22.60;99.90
5697;DHT22;2873;50.966;7.210;2023-10-13T10:19:33;22.60;99.90
5697;DHT22;2873;50.966;7.210;2023-10-13T10:22:04;22.50;99.90
5697;DHT22;2873;50.966;7.210;2023-10-13T10:24:42;22.50;99.90
5697;DHT22;2873;50.966;7.210;2023-10-13T10:27:08;22.30;99.90
5697;DHT22;2873;50.966;7.210;2023-10-13T10:29:33;22.30;99.90
5697;DHT22;2873;50.966;7.210;2023-10-13T10:31:59;22.30;99.90
5697;DHT22;2873;50.966;7.210;2023-10-13T10:34:30;22.30;99.90
5697;DHT22;2873;50.966;7.210;2023-10-13T10:36:58;22.50;99.90
5697;DHT22;2873;50.966;7.210;2023-10-13T10:39:34;22.80;99.90
5697;DHT22;2873;50.966;7.210;2023-10-13T10:42:13;23.20;99.90
5697;DHT22;2873;50.966;7.210;2023-10-13T10:44:50;23.50;99.90
5697;DHT22;2873;50.966;7.210;2023-10-13T10:47:20;23.90;99.90
5697;DHT22;2873;50.966;7.210;2023-10-13T10:50:02;24.20;99.90
5697;DHT22;2873;50.966;7.210;2023-10-13T10:52:45;24.70;99.90
5697;DHT22;2873;50.966;7.210;2023-10-13T10:55:12;24.90;99.90
5697;DHT22;2873;50.966;7.210;2023-10-13T10:57:42;24.60;99.90
5697;DHT22;2873;50.966;7.210;2023-10-13T11:00:20;24.60;99.90
5697;DHT22;2873;50.966;7.210;2023-10-13T11:02:56;24.30;99.90
5697;DHT22;2873;50.966;7.210;2023-10-13T11:05:25;24.30;99.90
5697;DHT22;2873;50.966;7.210;2023-10-13T11:07:58;24.10;99.90
5697;DHT22;2873;50.966;7.210;2023-10-13T11:10:23;24.00;99.90
5697;DHT22;2873;50.966;7.210;2023-10-13T11:12:59;23.70;99.90
5697;DHT22;2873;50.966;7.210;2023-10-13T11:15:42;23.70;99.90
5697;DHT22;2873;50.966;7.210;2023-10-13T11:18:10;23.70;99.90
5697;DHT22;2873;50.966;7.210;2023-10-13T11:20:43;23.60;99.90
5697;DHT22;2873;50.966;7.210;2023-10-13T11:23:12;23.60;99.90
5697;DHT22;2873;50.966;7.210;2023-10-13T11:25:38;23.50;99.90
5697;DHT22;2873;50.966;7.210;2023-10-13T11:28:11;23.80;99.90
5697;DHT22;2873;50.966;7.210;2023-10-13T11:30:43;23.70;99.90
5697;DHT22;2873;50.966;7.210;2023-10-13T11:33:11;23.70;99.90
5697;DHT22;2873;50.966;7.210;2023-10-13T11:35:43;23.40;99.90
5697;DHT22;2873;50.966;7.210;2023-10-13T11:38:28;23.30;99.90
5697;DHT22;2873;50.966;7.210;2023-10-13T11:41:01;23.30;99.90
5697;DHT22;2873;50.966;7.210;2023-10-13T11:43:26;23.30;99.90
5697;DHT22;2873;50.966;7.210;2023-10-13T11:45:52;23.10;99.90
5697;DHT22;2873;50.966;7.210;2023-10-13T11:48:40;23.10;99.90
5697;DHT22;2873;50.966;7.210;2023-10-13T11:51:11;23.10;99.90
5697;DHT22;2873;50.966;7.210;2023-10-13T11:53:49;23.10;99.90
5697;DHT22;2873;50.966;7.210;2023-10-13T11:56:18;23.00;99.90
5697;DHT22;2873;50.966;7.210;2023-10-13T11:58:47;23.00;99.90
5697;DHT22;2873;50.966;7.210;2023-10-13T12:01:13;23.10;99.90
5697;DHT22;2873;50.966;7.210;2023-10-13T12:03:39;23.00;99.90
5697;DHT22;2873;50.966;7.210;2023-10-13T12:06:24;23.00;99.90
5697;DHT22;2873;50.966;7.210;2023-10-13T12:09:01;22.90;99.90
5697;DHT22;2873;50.966;7.210;2023-10-13T12:11:40;22.90;99.90
5697;DHT22;2873;50.966;7.210;2023-10-13T12:14:08;23.00;99.90
5697;DHT22;2873;50.966;7.210;2023-10-13T12:16:47;23.10;99.90
5697;DHT22;2873;50.966;7.210;2023-10-13T12:19:17;23.10;99.90
5697;DHT22;2873;50.966;7.210;2023-10-13T12:21:55;23.10;99.90
5697;DHT22;2873;50.966;7.210;2023-10-13T12:24:27;23.40;99.90
5697;DHT22;2873;50.966;7.210;2023-10-13T12:27:05;23.40;99.90
5697;DHT22;2873;50.966;7.210;2023-10-13T12:30:00;23.30;99.90
5697;DHT22;2873;50.966;7.210;2023-10-13T12:32:33;23.30;99.90
5697;DHT22;2873;50.966;7.210;2023-10-13T12:35:00;23.20;99.90
5697;DHT22;2873;50.966;7.210;2023-10-13T12:37:42;23.30;99.90
5697;DHT22;2873;50.966;7.210;2023-10-13T12:40:11;23.10;99.90
5697;DHT22;2873;50.966;7.210;2023-10-13T12:42:56;23.00;99.90
5697;DHT22;2873;50.966;7.210;2023-10-13T12:45:41;23.00;99.90
5697;DHT22;2873;50.966;7.210;2023-10-13T12:48:25;23.00;99.90
5697;DHT22;2873;50.966;7.210;2023-10-13T12:51:09;23.00;99.90
5697;DHT22;2873;50.966;7.210;2023-10-13T12:53:55;23.00;99.90
5697;DHT22;2873;50.966;7.210;2023-10-13T12:56:21;22.90;99.90
5697;DHT22;2873;50.966;7.210;2023-10-13T12:58:54;23.00;99.90
5697;DHT22;2873;50.966;7.210;2023-10-13T13:01:24;23.00;99.90
5697;DHT22;2873;50.966;7.210;2023-10-13T13:03:51;22.80;99.90
5697;DHT22;2873;50.966;7.210;2023-10-13T13:06:25;23.00;99.90
5697;DHT22;2873;50.966;7.210;2023-10-13T13:08:52;22.90;99.90
5697;DHT22;2873;50.966;7.210;2023-10-13T13:11:18;23.00;99.90
5697;DHT22;2873;50.966;7.210;2023-10-13T13:13:43;22.90;99.90
5697;DHT22;2873;50.966;7.210;2023-10-13T13:16:12;22.80;99.90
5697;DHT22;2873;50.966;7.210;2023-10-13T13:18:37;23.00;99.90
5697;DHT22;2873;50.966;7.210;2023-10-13T13:21:03;22.80;99.90
5697;DHT22;2873;50.966;7.210;2023-10-13T13:23:31;22.80;99.90
5697;DHT22;2873;50.966;7.210;2023-10-13T13:25:57;23.00;99.90
5697;DHT22;2873;50.966;7.210;2023-10-13T13:28:23;23.00;99.90
5697;DHT22;2873;50.966;7.210;2023-10-13T13:30:49;22.80;99.90
5697;DHT22;2873;50.966;7.210;2023-10-13T13:33:17;22.90;99.90
5697;DHT22;2873;50.966;7.210;2023-10-13T13:35:48;22.70;99.90
5697;DHT22;2873;50.966;7.210;2023-10-13T13:38:14;22.80;99.90
5697;DHT22;2873;50.966;7.210;2023-10-13T13:40:47;22.90;99.90
5697;DHT22;2873;50.966;7.210;2023-10-13T13:43:20;23.10;99.90
5697;DHT22;2873;50.966;7.210;2023-10-13T13:46:03;22.90;99.90
5697;DHT22;2873;50.966;7.210;2023-10-13T13:48:29;22.80;99.90
5697;DHT22;2873;50.966;7.210;2023-10-13T13:50:55;22.80;99.90
5697;DHT22;2873;50.966;7.210;2023-10-13T13:53:31;22.90;99.90
5697;DHT22;2873;50.966;7.210;2023-10-13T13:56:03;22.70;99.90
5697;DHT22;2873;50.966;7.210;2023-10-13T13:58:30;22.60;99.90
5697;DHT22;2873;50.966;7.210;2023-10-13T14:01:02;22.80;99.90
5697;DHT22;2873;50.966;7.210;2023-10-13T14:03:41;22.70;99.90
5697;DHT22;2873;50.966;7.210;2023-10-13T14:06:16;22.70;99.90
5697;DHT22;2873;50.966;7.210;2023-10-13T14:08:56;22.70;99.90
5697;DHT22;2873;50.966;7.210;2023-10-13T14:11:27;22.70;99.90
5697;DHT22;2873;50.966;7.210;2023-10-13T14:16:54;22.60;99.90
5697;DHT22;2873;50.966;7.210;2023-10-13T14:19:27;22.50;99.90
5697;DHT22;2873;50.966;7.210;2023-10-13T14:21:54;22.60;99.90
5697;DHT22;2873;50.966;7.210;2023-10-13T14:24:21;22.70;99.90
5697;DHT22;2873;50.966;7.210;2023-10-13T14:27:00;22.70;99.90
5697;DHT22;2873;50.966;7.210;2023-10-13T14:29:33;22.70;99.90
5697;DHT22;2873;50.966;7.210;2023-10-13T14:31:59;22.70;99.90
5697;DHT22;2873;50.966;7.210;2023-10-13T14:34:25;22.70;99.90
5697;DHT22;2873;50.966;7.210;2023-10-13T14:36:52;22.70;99.90
5697;DHT22;2873;50.966;7.210;2023-10-13T14:39:19;22.80;99.90
5697;DHT22;2873;50.966;7.210;2023-10-13T14:41:46;22.80;99.90
5697;DHT22;2873;50.966;7.210;2023-10-13T14:44:13;22.70;99.90
5697;DHT22;2873;50.966;7.210;2023-10-13T14:46:39;22.70;99.90
5697;DHT22;2873;50.966;7.210;2023-10-13T14:49:05;22.60;99.90
5697;DHT22;2873;50.966;7.210;2023-10-13T14:51:31;22.50;99.90
5697;DHT22;2873;50.966;7.210;2023-10-13T14:53:58;22.60;99.90
5697;DHT22;2873;50.966;7.210;2023-10-13T14:56:26;22.60;99.90
5697;DHT22;2873;50.966;7.210;2023-10-13T14:58:53;22.70;99.90
5697;DHT22;2873;50.966;7.210;2023-10-13T15:01:21;22.60;99.90
5697;DHT22;2873;50.966;7.210;2023-10-13T15:03:51;22.50;99.90
5697;DHT22;2873;50.966;7.210;2023-10-13T15:06:27;22.50;99.90
5697;DHT22;2873;50.966;7.210;2023-10-13T15:08:59;22.50;99.90
5697;DHT22;2873;50.966;7.210;2023-10-13T15:11:26;22.50;99.90
5697;DHT22;2873;50.966;7.210;2023-10-13T15:13:53;22.40;99.90
5697;DHT22;2873;50.966;7.210;2023-10-13T15:16:22;22.50;99.90
5697;DHT22;2873;50.966;7.210;2023-10-13T15:18:49;22.60;99.90
5697;DHT22;2873;50.966;7.210;2023-10-13T15:21:19;22.40;99.90
5697;DHT22;2873;50.966;7.210;2023-10-13T15:23:47;22.40;99.90
5697;DHT22;2873;50.966;7.210;2023-10-13T15:26:13;22.40;99.90
5697;DHT22;2873;50.966;7.210;2023-10-13T15:28:40;22.30;99.90
5697;DHT22;2873;50.966;7.210;2023-10-13T15:31:19;22.40;99.90
5697;DHT22;2873;50.966;7.210;2023-10-13T15:34:01;22.30;99.90
5697;DHT22;2873;50.966;7.210;2023-10-13T15:36:35;22.30;99.90
5697;DHT22;2873;50.966;7.210;2023-10-13T15:39:01;22.30;99.90
5697;DHT22;2873;50.966;7.210;2023-10-13T15:41:28;22.30;99.90
5697;DHT22;2873;50.966;7.210;2023-10-13T15:43:54;22.20;99.90
5697;DHT22;2873;50.966;7.210;2023-10-13T15:46:22;22.20;99.90
5697;DHT22;2873;50.966;7.210;2023-10-13T15:48:51;22.30;99.90
5697;DHT22;2873;50.966;7.210;2023-10-13T15:51:17;22.20;99.90
5697;DHT22;2873;50.966;7.210;2023-10-13T15:53:44;22.20;99.90
5697;DHT22;2873;50.966;7.210;2023-10-13T15:56:13;22.20;99.90
5697;DHT22;2873;50.966;7.210;2023-10-13T15:58:43;22.20;99.90
5697;DHT22;2873;50.966;7.210;2023-10-13T16:01:10;22.20;99.90
5697;DHT22;2873;50.966;7.210;2023-10-13T16:03:45;22.30;99.90
5697;DHT22;2873;50.966;7.210;2023-10-13T16:06:15;22.30;99.90
5697;DHT22;2873;50.966;7.210;2023-10-13T16:08:42;22.20;99.90
5697;DHT22;2873;50.966;7.210;2023-10-13T16:11:09;22.30;99.90
5697;DHT22;2873;50.966;7.210;2023-10-13T16:13:45;22.10;99.90
5697;DHT22;2873;50.966;7.210;2023-10-13T16:16:15;22.20;99.90
5697;DHT22;2873;50.966;7.210;2023-10-13T16:18:42;22.10;99.90
5697;DHT22;2873;50.966;7.210;2023-10-13T16:21:12;22.20;99.90
5697;DHT22;2873;50.966;7.210;2023-10-13T16:23:38;22.00;99.90
5697;DHT22;2873;50.966;7.210;2023-10-13T16:26:07;22.00;99.90
5697;DHT22;2873;50.966;7.210;2023-10-13T16:28:37;22.00;99.90
5697;DHT22;2873;50.966;7.210;2023-10-13T16:31:07;22.00;99.90
5697;DHT22;2873;50.966;7.210;2023-10-13T16:33:34;22.00;99.90
5697;DHT22;2873;50.966;7.210;2023-10-13T16:36:02;22.00;99.90
5697;DHT22;2873;50.966;7.210;2023-10-13T16:38:31;22.00;99.90
5697;DHT22;2873;50.966;7.210;2023-10-13T16:40:57;21.90;99.90
5697;DHT22;2873;50.966;7.210;2023-10-13T16:43:22;22.10;99.90
5697;DHT22;2873;50.966;7.210;2023-10-13T16:45:48;22.00;99.90
5697;DHT22;2873;50.966;7.210;2023-10-13T16:48:14;22.00;99.90
5697;DHT22;2873;50.966;7.210;2023-10-13T16:50:45;22.10;99.90